Time;durP1;ratioP1;P1;durP2;ratioP2;P2;SDS_P1;SDS_P2;PMS_P1;PMS_P2;Temp;Humidity;BMP_temperature;BMP_pressure;BME280_temperature;BME280_humidity;BME280_pressure;Samples;Min_cycle;Max_cycle;Signal;HPM_P1;HPM_P2
2021/06/17 00:02:12;;;;;;;30.45;25.45;;;24.20;64.60;;;;;;4990401;28;20496;-42
2021/06/17 00:04:37;;;;;;;30.42;25.58;;;24.10;64.60;;;;;;4993024;28;20034;-43
2021/06/17 00:07:03;;;;;;;33.63;28.45;;;24.20;64.50;;;;;;4992869;28;20485;-39
2021/06/17 00:09:29;;;;;;;36.72;30.00;;;24.20;64.50;;;;;;4990617;28;20030;-43
2021/06/17 00:12:00;;;;;;;33.55;29.20;;;24.20;64.60;;;;;;4992108;28;20172;-43
2021/06/17 00:14:25;;;;;;;34.80;29.40;;;24.20;64.60;;;;;;4991580;28;20031;-40
2021/06/17 00:16:51;;;;;;;33.53;29.42;;;24.10;64.40;;;;;;5007054;28;20101;-43
2021/06/17 00:19:17;;;;;;;32.60;27.75;;;24.20;64.30;;;;;;4994646;28;20030;-43
2021/06/17 00:21:42;;;;;;;34.67;29.23;;;24.10;64.50;;;;;;4990998;28;20166;-43
2021/06/17 00:24:08;;;;;;;36.53;31.00;;;24.10;64.40;;;;;;4991885;28;20042;-42
2021/06/17 00:26:34;;;;;;;39.67;32.63;;;24.10;64.40;;;;;;4988675;28;20435;-43
2021/06/17 00:29:00;;;;;;;40.83;34.22;;;24.10;64.40;;;;;;4990964;28;20038;-45
2021/06/17 00:31:25;;;;;;;42.58;34.42;;;24.00;64.50;;;;;;4992112;28;20035;-40
2021/06/17 00:33:51;;;;;;;42.50;33.33;;;24.00;64.50;;;;;;4993089;28;20515;-44
2021/06/17 00:36:16;;;;;;;41.72;34.65;;;24.00;64.30;;;;;;4991767;28;20033;-43
2021/06/17 00:38:42;;;;;;;41.13;32.90;;;24.00;64.10;;;;;;4989280;28;20034;-41
2021/06/17 00:41:07;;;;;;;41.78;34.75;;;24.00;64.20;;;;;;4990444;28;20397;-37
2021/06/17 00:43:33;;;;;;;44.33;35.67;;;24.00;64.40;;;;;;4995969;28;20496;-43
2021/06/17 00:45:58;;;;;;;42.35;32.85;;;23.90;64.40;;;;;;4992418;28;20049;-40
2021/06/17 00:48:24;;;;;;;49.33;35.90;;;23.90;64.30;;;;;;4989982;28;20559;-43
2021/06/17 00:50:54;;;;;;;43.85;33.67;;;23.90;64.30;;;;;;4989178;28;20046;-43
2021/06/17 00:53:23;;;;;;;42.75;34.53;;;23.90;64.20;;;;;;4979950;28;20101;-43
2021/06/17 00:55:48;;;;;;;44.97;34.25;;;23.80;64.50;;;;;;4973499;28;20497;-42
2021/06/17 00:58:14;;;;;;;48.88;35.92;;;23.80;64.50;;;;;;4991768;28;20022;-47
2021/06/17 01:00:40;;;;;;;42.33;34.05;;;23.90;64.40;;;;;;4989854;28;20493;-44
2021/06/17 01:03:05;;;;;;;48.97;37.72;;;23.90;64.50;;;;;;4993465;28;20488;-43
2021/06/17 01:05:31;;;;;;;43.53;34.53;;;23.80;64.60;;;;;;4974927;28;20038;-40
2021/06/17 01:08:07;;;;;;;47.35;37.47;;;23.80;64.70;;;;;;4989356;28;20023;-42
2021/06/17 01:10:56;;;;;;;44.92;35.97;;;23.80;64.60;;;;;;4992842;28;20030;-43
2021/06/17 01:13:34;;;;;;;48.53;37.58;;;23.80;64.60;;;;;;5003787;28;20034;-43
2021/06/17 01:16:11;;;;;;;46.45;36.78;;;23.70;64.80;;;;;;4991740;28;20022;-41
2021/06/17 01:18:39;;;;;;;44.35;36.35;;;23.70;64.80;;;;;;4989475;28;20034;-43
2021/06/17 01:21:11;;;;;;;48.83;39.30;;;23.70;65.00;;;;;;5004923;28;20401;-43
2021/06/17 01:23:55;;;;;;;50.53;37.72;;;23.70;65.00;;;;;;5003902;28;20145;-43
2021/06/17 01:26:38;;;;;;;50.63;37.97;;;23.80;64.90;;;;;;4989175;28;20054;-43
2021/06/17 01:29:03;;;;;;;45.63;34.85;;;23.70;65.00;;;;;;4982985;28;20023;-41
2021/06/17 01:31:32;;;;;;;50.75;38.80;;;23.70;65.10;;;;;;4974586;28;20030;-43
2021/06/17 01:33:58;;;;;;;49.20;38.22;;;23.60;65.40;;;;;;5003065;28;20492;-43
2021/06/17 01:36:25;;;;;;;50.00;38.15;;;23.50;65.50;;;;;;4956460;28;20128;-44
2021/06/17 01:38:53;;;;;;;46.67;35.92;;;23.70;65.30;;;;;;5003526;28;20075;-43
2021/06/17 01:41:24;;;;;;;49.95;38.35;;;23.70;65.10;;;;;;5004350;28;20028;-43
2021/06/17 01:43:49;;;;;;;51.38;37.25;;;23.70;64.70;;;;;;4975826;28;20023;-43
2021/06/17 01:46:15;;;;;;;50.72;36.78;;;23.70;64.90;;;;;;4974477;28;20037;-44
2021/06/17 01:48:41;;;;;;;49.97;36.53;;;23.60;64.90;;;;;;4990284;28;20030;-43
2021/06/17 01:51:07;;;;;;;50.15;38.17;;;23.70;64.90;;;;;;5004424;28;20044;-44
2021/06/17 01:53:33;;;;;;;47.80;36.95;;;23.70;64.80;;;;;;4974121;28;20026;-44
2021/06/17 01:55:59;;;;;;;53.65;40.80;;;23.60;64.80;;;;;;4989204;28;20031;-43
2021/06/17 01:58:24;;;;;;;49.45;37.55;;;23.70;64.80;;;;;;4977933;28;20026;-43
2021/06/17 02:00:50;;;;;;;54.75;39.38;;;23.60;65.10;;;;;;5005408;28;20398;-43
2021/06/17 02:03:16;;;;;;;51.63;38.60;;;23.60;65.00;;;;;;4987442;28;20040;-41
2021/06/17 02:05:42;;;;;;;48.75;35.55;;;23.60;65.00;;;;;;4989830;28;20065;-45
2021/06/17 02:08:08;;;;;;;46.92;35.63;;;23.60;65.10;;;;;;5004568;28;20126;-43
2021/06/17 02:10:33;;;;;;;44.65;34.00;;;23.50;65.10;;;;;;4972782;28;20022;-43
2021/06/17 02:12:59;;;;;;;46.10;33.97;;;23.50;65.30;;;;;;4982545;28;20042;-42
2021/06/17 02:15:28;;;;;;;50.33;36.20;;;23.50;65.50;;;;;;4971362;28;20126;-41
2021/06/17 02:17:55;;;;;;;51.75;35.95;;;23.50;65.50;;;;;;5003218;28;20104;-44
2021/06/17 02:20:20;;;;;;;45.97;33.35;;;23.50;65.40;;;;;;4989570;28;20030;-44
2021/06/17 02:22:46;;;;;;;42.08;29.58;;;23.50;66.20;;;;;;4971588;28;20031;-44
2021/06/17 02:25:15;;;;;;;39.42;30.88;;;23.50;65.30;;;;;;4991339;28;20400;-44
2021/06/17 02:27:41;;;;;;;41.58;29.67;;;23.50;65.50;;;;;;4988679;28;20022;-39
2021/06/17 02:30:08;;;;;;;45.90;32.28;;;23.50;65.50;;;;;;4957387;28;20085;-44
2021/06/17 02:32:36;;;;;;;40.55;30.90;;;23.40;65.50;;;;;;4988532;28;20457;-44
2021/06/17 02:35:04;;;;;;;45.78;33.33;;;23.50;65.40;;;;;;4981468;28;20019;-42
2021/06/17 02:37:29;;;;;;;45.03;32.38;;;23.60;65.00;;;;;;4989835;28;20030;-43
2021/06/17 02:39:55;;;;;;;43.92;32.10;;;23.60;65.10;;;;;;4992190;28;20026;-42
2021/06/17 02:42:21;;;;;;;41.25;30.85;;;23.50;65.30;;;;;;4971108;28;20034;-40
2021/06/17 02:44:48;;;;;;;39.78;28.92;;;23.40;65.70;;;;;;5004985;28;20026;-44
2021/06/17 02:47:13;;;;;;;41.70;30.17;;;23.50;65.30;;;;;;5003732;28;20464;-44
2021/06/17 02:49:40;;;;;;;37.90;28.85;;;23.40;65.60;;;;;;4988540;28;20050;-44
2021/06/17 02:52:05;;;;;;;39.20;28.20;;;23.40;65.40;;;;;;4991227;28;20096;-43
2021/06/17 02:54:31;;;;;;;39.67;28.52;;;23.40;65.60;;;;;;4988033;28;20030;-43
2021/06/17 02:57:12;;;;;;;37.45;27.58;;;23.40;65.70;;;;;;4988156;28;20034;-43
2021/06/17 03:00:06;;;;;;;35.58;26.48;;;23.40;65.70;;;;;;4988376;28;20028;-44
2021/06/17 03:02:38;;;;;;;;;;;23.40;65.60;;;;;;4987580;28;20069;-44
2021/06/17 03:05:09;;;;;;;36.40;23.00;;;23.40;65.60;;;;;;4988559;28;19917;-43
2021/06/17 03:07:37;;;;;;;33.20;25.40;;;23.40;65.70;;;;;;4972176;28;20117;-43
2021/06/17 03:10:07;;;;;;;31.88;23.80;;;23.30;65.70;;;;;;5005426;28;20038;-38
2021/06/17 03:12:33;;;;;;;32.30;23.77;;;23.30;65.80;;;;;;4989148;28;20029;-43
2021/06/17 03:15:01;;;;;;;33.75;23.77;;;23.30;65.90;;;;;;4988140;28;20038;-44
2021/06/17 03:17:27;;;;;;;32.97;25.08;;;23.30;66.70;;;;;;4987677;28;20528;-40
2021/06/17 03:19:55;;;;;;;33.85;24.00;;;23.30;65.60;;;;;;4987249;28;20078;-44
2021/06/17 03:22:24;;;;;;;35.33;25.17;;;23.40;65.70;;;;;;4973997;28;20034;-43
2021/06/17 03:24:50;;;;;;;32.15;24.45;;;23.30;65.90;;;;;;4984496;28;20386;-43
2021/06/17 03:27:16;;;;;;;31.77;23.02;;;23.30;65.70;;;;;;4975303;28;20488;-44
2021/06/17 03:29:47;;;;;;;30.10;21.95;;;23.30;65.80;;;;;;4972617;28;20082;-43
2021/06/17 03:32:12;;;;;;;30.17;21.60;;;23.30;65.80;;;;;;4987428;28;20023;-43
2021/06/17 03:34:38;;;;;;;31.33;22.10;;;23.30;65.60;;;;;;4971526;28;20412;-44
2021/06/17 03:37:04;;;;;;;29.67;22.20;;;23.40;66.40;;;;;;4988962;28;20114;-43
2021/06/17 03:39:29;;;;;;;29.80;21.88;;;23.30;65.70;;;;;;4971686;28;20536;-45
2021/06/17 03:41:55;;;;;;;28.05;20.58;;;23.30;65.70;;;;;;4988734;28;20029;-44
2021/06/17 03:44:21;;;;;;;29.73;22.13;;;23.30;65.60;;;;;;5005000;28;20054;-44
2021/06/17 03:46:47;;;;;;;26.45;20.20;;;23.30;65.80;;;;;;4955726;28;20043;-44
2021/06/17 03:49:12;;;;;;;29.23;20.63;;;23.20;66.50;;;;;;5012116;28;20046;-44
2021/06/17 03:51:38;;;;;;;25.98;19.00;;;23.30;65.60;;;;;;4987110;28;20104;-44
2021/06/17 03:54:04;;;;;;;25.90;19.75;;;23.30;65.70;;;;;;4988436;28;20659;-44
2021/06/17 03:56:30;;;;;;;27.52;19.20;;;23.20;65.80;;;;;;4955357;28;20544;-43
2021/06/17 03:58:55;;;;;;;24.63;18.10;;;23.20;66.10;;;;;;4988819;28;20046;-44
2021/06/17 04:01:21;;;;;;;28.45;19.05;;;23.10;66.10;;;;;;4970473;28;20053;-41
2021/06/17 04:03:47;;;;;;;22.75;17.55;;;23.10;66.00;;;;;;5004153;28;20405;-41
2021/06/17 04:06:15;;;;;;;25.88;18.10;;;23.20;65.80;;;;;;4970184;28;20488;-43
2021/06/17 04:08:59;;;;;;;30.05;20.23;;;23.20;65.70;;;;;;4986313;28;20390;-43
2021/06/17 04:11:25;;;;;;;25.63;18.53;;;23.20;65.80;;;;;;4987140;28;20085;-42
2021/06/17 04:13:51;;;;;;;24.58;18.50;;;23.10;65.90;;;;;;4968904;28;20328;-42
2021/06/17 04:16:18;;;;;;;27.30;18.88;;;23.10;65.90;;;;;;4973764;28;20034;-43
2021/06/17 04:18:45;;;;;;;27.25;19.25;;;23.10;65.90;;;;;;4988904;28;20101;-43
2021/06/17 04:21:11;;;;;;;24.17;17.88;;;23.10;65.80;;;;;;4969966;28;20117;-38
2021/06/17 04:23:37;;;;;;;25.95;18.42;;;23.20;65.70;;;;;;4987172;28;20037;-43
2021/06/17 04:26:02;;;;;;;22.75;17.58;;;23.20;65.60;;;;;;4986882;28;20042;-43
2021/06/17 04:28:28;;;;;;;24.50;17.42;;;23.10;65.80;;;;;;4954673;28;20027;-40
2021/06/17 04:30:54;;;;;;;28.05;20.38;;;23.10;66.00;;;;;;4991267;28;20034;-45
2021/06/17 04:33:20;;;;;;;25.45;17.52;;;23.10;66.30;;;;;;4972349;28;20409;-44
2021/06/17 04:35:47;;;;;;;24.67;18.73;;;23.00;66.10;;;;;;4971712;28;20033;-44
2021/06/17 04:38:17;;;;;;;23.35;17.10;;;23.00;66.00;;;;;;4973432;28;20559;-43
2021/06/17 04:40:45;;;;;;;26.90;18.65;;;23.00;66.10;;;;;;4992442;28;20468;-44
2021/06/17 04:43:10;;;;;;;22.75;17.10;;;23.00;66.40;;;;;;4994229;28;20034;-43
2021/06/17 04:45:36;;;;;;;24.83;18.33;;;23.00;66.10;;;;;;4988809;28;20459;-43
2021/06/17 04:48:05;;;;;;;24.17;17.95;;;22.90;66.50;;;;;;4992502;28;20463;-44
2021/06/17 04:50:31;;;;;;;22.42;16.70;;;22.90;66.80;;;;;;4996952;28;20057;-44
2021/06/17 04:52:56;;;;;;;25.58;17.73;;;22.90;66.90;;;;;;4991724;28;20030;-43
2021/06/17 04:55:22;;;;;;;22.98;16.50;;;22.80;67.10;;;;;;4991738;28;20386;-44
2021/06/17 04:57:48;;;;;;;24.17;16.98;;;22.80;67.00;;;;;;4989704;28;20401;-41
2021/06/17 05:00:14;;;;;;;25.02;16.15;;;22.80;67.10;;;;;;4974327;28;20058;-44
2021/06/17 05:02:39;;;;;;;21.92;16.40;;;22.80;67.90;;;;;;4988268;28;20054;-44
2021/06/17 05:05:08;;;;;;;23.25;16.80;;;22.80;67.20;;;;;;4990809;28;20157;-43
2021/06/17 05:12:43;;;;;;;21.23;15.98;;;22.70;67.60;;;;;;4973079;28;20108;-38
2021/06/17 05:15:09;;;;;;;22.15;16.23;;;22.80;67.60;;;;;;4986373;28;20035;-40
2021/06/17 05:17:35;;;;;;;19.27;16.08;;;22.90;67.30;;;;;;4970030;28;20493;-41
2021/06/17 05:20:01;;;;;;;21.02;14.82;;;22.90;67.40;;;;;;4990038;28;20030;-43
2021/06/17 05:22:27;;;;;;;18.58;15.10;;;22.90;67.50;;;;;;4988647;28;20032;-43
2021/06/17 05:24:53;;;;;;;17.65;14.57;;;22.80;68.00;;;;;;5004524;28;20117;-45
2021/06/17 05:27:18;;;;;;;14.05;12.55;;;22.70;68.30;;;;;;4942694;28;20069;-41
2021/06/17 05:29:44;;;;;;;18.33;12.82;;;22.50;69.00;;;;;;4955783;28;21186;-44
2021/06/17 05:32:10;;;;;;;14.88;12.13;;;22.30;69.90;;;;;;4973964;28;20030;-40
2021/06/17 05:34:36;;;;;;;14.70;13.13;;;22.20;70.40;;;;;;4972701;28;20034;-42
2021/06/17 05:37:01;;;;;;;14.80;11.32;;;22.20;70.40;;;;;;4955470;28;21004;-42
2021/06/17 05:39:27;;;;;;;12.70;10.90;;;22.20;70.30;;;;;;4972057;28;20034;-41
2021/06/17 05:41:52;;;;;;;14.07;11.38;;;22.20;70.70;;;;;;4973384;28;20069;-41
2021/06/17 05:44:18;;;;;;;12.48;10.40;;;22.20;70.70;;;;;;4973215;28;20053;-43
2021/06/17 05:46:44;;;;;;;11.63;10.07;;;22.20;70.80;;;;;;4970161;28;20078;-41
2021/06/17 05:49:09;;;;;;;11.57;10.00;;;22.20;70.70;;;;;;4974511;28;20615;-41
2021/06/17 05:51:35;;;;;;;12.05;9.07;;;22.20;70.80;;;;;;4973070;28;20038;-42
2021/06/17 05:54:00;;;;;;;9.93;8.85;;;22.20;70.90;;;;;;4972547;28;20038;-42
2021/06/17 05:56:27;;;;;;;11.30;8.88;;;22.40;70.70;;;;;;4971092;28;20034;-43
2021/06/17 05:58:52;;;;;;;10.73;9.63;;;22.40;70.40;;;;;;4972730;28;20030;-43
2021/06/17 06:01:18;;;;;;;8.55;7.75;;;22.50;70.30;;;;;;4974180;28;20038;-43
2021/06/17 06:03:44;;;;;;;8.30;7.32;;;22.40;70.50;;;;;;4972791;28;20049;-39
2021/06/17 06:06:09;;;;;;;8.30;7.60;;;22.30;70.70;;;;;;4971489;28;20501;-29
2021/06/17 06:08:35;;;;;;;8.30;7.60;;;22.30;70.90;;;;;;4957233;28;20042;-32
2021/06/17 06:11:01;;;;;;;8.45;7.15;;;22.40;70.70;;;;;;4974491;28;20113;-36
2021/06/17 06:13:26;;;;;;;8.38;7.68;;;22.50;70.40;;;;;;4974566;28;20405;-35
2021/06/17 06:15:52;;;;;;;7.93;7.03;;;22.50;70.40;;;;;;4974672;28;20567;-38
2021/06/17 06:18:17;;;;;;;6.95;6.45;;;22.70;69.90;;;;;;4975591;28;20034;-41
2021/06/17 06:20:45;;;;;;;6.80;6.30;;;22.80;68.90;;;;;;4976562;28;20034;-42
2021/06/17 06:23:11;;;;;;;7.05;6.45;;;23.00;68.40;;;;;;4975105;28;20149;-43
2021/06/17 06:25:37;;;;;;;6.88;6.22;;;23.10;67.90;;;;;;4973369;28;20471;-43
2021/06/17 06:28:03;;;;;;;7.18;6.57;;;23.10;68.80;;;;;;4630912;28;10000416;-40
2021/06/17 06:30:29;;;;;;;6.90;6.30;;;23.20;67.80;;;;;;4972390;28;20034;-42
2021/06/17 06:32:55;;;;;;;5.95;5.38;;;23.20;67.60;;;;;;4969941;28;20038;-43
2021/06/17 06:35:20;;;;;;;5.78;5.38;;;23.00;68.20;;;;;;4966684;28;20054;-41
2021/06/17 06:37:50;;;;;;;5.75;5.30;;;22.80;68.80;;;;;;4965848;28;20275;-42
2021/06/17 06:40:22;;;;;;;8.65;6.20;;;22.80;69.20;;;;;;4979627;28;20034;-42
2021/06/17 06:42:48;;;;;;;6.78;6.18;;;22.90;69.10;;;;;;4977369;28;20038;-43
2021/06/17 06:45:14;;;;;;;7.47;6.78;;;22.90;68.80;;;;;;4959713;28;20048;-42
2021/06/17 06:47:39;;;;;;;4.30;4.07;;;23.20;68.80;;;;;;4977784;28;20413;-42
2021/06/17 06:50:05;;;;;;;5.03;4.63;;;23.20;67.70;;;;;;4978680;28;20050;-43
2021/06/17 06:52:31;;;;;;;5.43;4.28;;;23.40;67.20;;;;;;4979196;28;20600;-44
2021/06/17 06:54:59;;;;;;;4.53;4.20;;;23.40;66.90;;;;;;4979122;28;20030;-42
2021/06/17 06:57:25;;;;;;;4.78;4.47;;;23.50;67.00;;;;;;4977957;28;20580;-43
2021/06/17 06:59:51;;;;;;;3.80;3.50;;;23.50;66.70;;;;;;4977984;28;20381;-43
2021/06/17 07:02:16;;;;;;;7.13;3.90;;;23.50;66.50;;;;;;4960438;28;20085;-39
2021/06/17 07:04:42;;;;;;;3.97;3.67;;;23.60;66.30;;;;;;4978500;28;24733;-39
2021/06/17 07:07:07;;;;;;;3.13;2.92;;;23.60;66.30;;;;;;4977848;28;20295;-38
2021/06/17 07:09:33;;;;;;;3.33;3.13;;;23.70;66.20;;;;;;4979154;28;20432;-42
2021/06/17 07:11:59;;;;;;;3.55;3.35;;;23.60;66.30;;;;;;4979493;28;20038;-40
2021/06/17 07:14:24;;;;;;;3.92;3.28;;;23.60;66.20;;;;;;4979969;28;20041;-42
2021/06/17 07:16:50;;;;;;;3.03;2.83;;;23.60;66.30;;;;;;4978687;28;20034;-42
2021/06/17 07:19:16;;;;;;;3.03;2.80;;;23.60;66.30;;;;;;4981096;28;20512;-42
2021/06/17 07:21:41;;;;;;;2.85;2.65;;;23.60;66.20;;;;;;4978851;28;20911;-43
2021/06/17 07:24:07;;;;;;;2.60;2.50;;;23.60;66.20;;;;;;4980303;28;20065;-41
2021/06/17 07:26:33;;;;;;;2.65;2.45;;;23.60;66.00;;;;;;4978842;28;20046;-45
2021/06/17 07:29:00;;;;;;;4.45;2.70;;;23.60;66.00;;;;;;4979804;28;20027;-41
2021/06/17 07:31:26;;;;;;;2.58;2.38;;;23.50;66.00;;;;;;4980879;28;20037;-42
2021/06/17 07:33:51;;;;;;;2.15;2.05;;;23.50;66.30;;;;;;4989683;28;20105;-43
2021/06/17 07:36:17;;;;;;;3.92;2.03;;;23.50;66.50;;;;;;5003328;28;20058;-42
2021/06/17 07:38:43;;;;;;;3.10;2.25;;;23.60;66.30;;;;;;4988485;28;20034;-43
2021/06/17 07:41:08;;;;;;;2.10;2.00;;;23.60;65.90;;;;;;4989658;28;20039;-43
2021/06/17 07:43:34;;;;;;;2.00;1.90;;;23.80;65.60;;;;;;4990785;28;20113;-43
2021/06/17 07:46:00;;;;;;;2.00;1.90;;;23.90;65.40;;;;;;4984866;28;20528;-42
2021/06/17 07:48:26;;;;;;;3.40;2.08;;;23.90;65.30;;;;;;4977079;28;20046;-43
2021/06/17 07:50:52;;;;;;;2.25;2.15;;;23.90;65.90;;;;;;4978443;28;20046;-42
2021/06/17 07:53:18;;;;;;;2.10;2.00;;;24.00;64.90;;;;;;4962247;28;20461;-43
2021/06/17 07:55:44;;;;;;;2.05;1.88;;;24.00;64.80;;;;;;4978866;28;20034;-40
2021/06/17 07:58:10;;;;;;;1.60;1.50;;;24.00;64.80;;;;;;4980522;28;20535;-39
2021/06/17 08:00:36;;;;;;;1.83;1.73;;;24.00;64.80;;;;;;4978489;28;20058;-41
2021/06/17 08:03:02;;;;;;;2.05;1.90;;;24.10;64.80;;;;;;4978821;28;20038;-39
2021/06/17 08:05:27;;;;;;;1.90;1.80;;;24.00;64.80;;;;;;4979611;28;20057;-35
2021/06/17 08:07:53;;;;;;;2.03;1.73;;;24.00;64.80;;;;;;4982971;28;20038;-33
2021/06/17 08:10:18;;;;;;;4.25;1.70;;;24.00;64.80;;;;;;4989668;28;20412;-43
2021/06/17 08:12:44;;;;;;;1.88;1.70;;;24.10;64.80;;;;;;4991595;28;20038;-39
2021/06/17 08:15:10;;;;;;;1.40;1.30;;;24.00;65.50;;;;;;4991986;28;20027;-43
2021/06/17 08:17:36;;;;;;;1.77;1.67;;;24.10;64.70;;;;;;4991788;28;20502;-43
2021/06/17 08:20:02;;;;;;;1.60;1.50;;;24.10;64.80;;;;;;4991826;28;20444;-43
2021/06/17 08:22:28;;;;;;;1.45;1.35;;;24.10;64.70;;;;;;4976695;28;20073;-41
2021/06/17 08:24:54;;;;;;;1.90;1.70;;;24.10;64.90;;;;;;5000322;28;20037;-43
2021/06/17 08:27:20;;;;;;;1.55;1.50;;;24.00;64.90;;;;;;4995105;28;20504;-42
2021/06/17 08:29:45;;;;;;;1.60;1.50;;;24.00;65.00;;;;;;4991507;28;20030;-42
2021/06/17 08:32:11;;;;;;;1.42;1.40;;;24.10;64.80;;;;;;4990965;28;20035;-42
2021/06/17 08:34:37;;;;;;;1.77;1.67;;;24.10;64.80;;;;;;4993371;28;20117;-43
2021/06/17 08:37:04;;;;;;;1.20;1.20;;;24.00;64.80;;;;;;4993572;28;20109;-43
2021/06/17 08:39:31;;;;;;;1.63;1.52;;;24.00;64.80;;;;;;4991421;28;20061;-43
2021/06/17 08:41:56;;;;;;;1.67;1.58;;;24.00;64.80;;;;;;4991993;28;20062;-43
2021/06/17 08:44:23;;;;;;;1.00;1.00;;;24.10;64.80;;;;;;4977398;28;20057;-43
2021/06/17 08:46:51;;;;;;;1.05;1.05;;;24.00;64.70;;;;;;4991136;28;20042;-43
2021/06/17 08:49:18;;;;;;;1.40;1.30;;;24.10;64.80;;;;;;5005763;28;20061;-43
2021/06/17 08:51:44;;;;;;;1.40;1.40;;;24.10;64.80;;;;;;4991148;28;20038;-41
2021/06/17 08:54:09;;;;;;;2.88;1.17;;;24.10;64.80;;;;;;5010031;28;20018;-42
2021/06/17 08:56:36;;;;;;;1.33;1.30;;;24.10;64.80;;;;;;4997511;28;20105;-43
2021/06/17 08:59:01;;;;;;;1.10;1.10;;;24.00;64.60;;;;;;4991819;28;20034;-43
2021/06/17 09:01:27;;;;;;;1.33;1.30;;;24.10;64.50;;;;;;4993616;28;20046;-42
2021/06/17 09:03:54;;;;;;;1.25;1.23;;;24.10;64.40;;;;;;4998494;28;20045;-43
2021/06/17 09:06:23;;;;;;;1.00;1.00;;;24.10;65.20;;;;;;4998828;28;20046;-43
2021/06/17 09:09:08;;;;;;;1.15;1.15;;;24.10;64.70;;;;;;4977741;28;20030;-44
2021/06/17 09:11:34;;;;;;;1.20;1.20;;;23.90;65.00;;;;;;5000159;28;20038;-42
2021/06/17 09:14:16;;;;;;;1.25;1.25;;;23.90;66.00;;;;;;4990913;28;20158;-42
2021/06/17 09:16:42;;;;;;;1.23;0.90;;;23.80;66.70;;;;;;4992094;28;20038;-43
2021/06/17 09:19:08;;;;;;;2.15;1.50;;;23.80;66.30;;;;;;4992989;28;20064;-43
2021/06/17 09:21:33;;;;;;;3.22;1.70;;;23.90;66.30;;;;;;4990228;28;20050;-43
2021/06/17 09:23:59;;;;;;;3.25;1.17;;;23.80;66.30;;;;;;4990568;28;20031;-40
2021/06/17 09:26:28;;;;;;;2.60;1.30;;;23.70;66.90;;;;;;4975897;28;20572;-42
2021/06/17 09:29:05;;;;;;;4.25;1.10;;;23.60;67.60;;;;;;4990372;28;20022;-42
2021/06/17 09:31:32;;;;;;;2.45;1.10;;;23.50;67.70;;;;;;4992593;28;20149;-43
2021/06/17 09:33:58;;;;;;;1.27;0.85;;;23.60;67.70;;;;;;4991793;28;20070;-43
2021/06/17 09:36:32;;;;;;;0.90;0.90;;;23.60;67.60;;;;;;4993078;28;20066;-47
2021/06/17 09:39:15;;;;;;;0.98;0.93;;;23.70;67.30;;;;;;4990181;28;20026;-41
2021/06/17 09:41:43;;;;;;;1.38;0.98;;;23.80;67.10;;;;;;4989714;28;20040;-43
2021/06/17 09:44:47;;;;;;;0.80;0.80;;;23.70;67.20;;;;;;4990416;28;20022;-43
2021/06/17 09:47:22;;;;;;;1.00;1.00;;;23.90;66.80;;;;;;4932186;29;20040;-42
2021/06/17 09:49:48;;;;;;;1.48;0.90;;;23.80;66.80;;;;;;4932283;29;20126;-42
2021/06/17 09:52:14;;;;;;;0.90;0.90;;;23.80;66.80;;;;;;4933803;29;20572;-42
2021/06/17 09:54:42;;;;;;;1.00;1.00;;;23.70;67.00;;;;;;4932463;29;20063;-43
2021/06/17 09:57:09;;;;;;;1.88;0.80;;;23.70;67.00;;;;;;4932666;29;20031;-43
2021/06/17 09:59:36;;;;;;;1.25;0.90;;;23.80;66.90;;;;;;4932705;29;20084;-42
2021/06/17 10:02:06;;;;;;;0.90;0.90;;;23.80;66.80;;;;;;4932646;29;20035;-42
2021/06/17 10:04:31;;;;;;;1.73;0.90;;;23.80;66.80;;;;;;4932901;29;20048;-43
2021/06/17 10:06:57;;;;;;;0.90;0.90;;;23.70;66.70;;;;;;4933522;29;20466;-42
2021/06/17 10:09:23;;;;;;;1.48;0.95;;;23.70;66.80;;;;;;4923967;29;20044;-42
2021/06/17 10:11:49;;;;;;;0.90;0.90;;;23.70;66.90;;;;;;4931138;29;20087;-41
2021/06/17 10:14:15;;;;;;;0.80;0.80;;;23.70;66.80;;;;;;4932177;29;20051;-42
2021/06/17 10:16:43;;;;;;;0.70;0.70;;;23.70;66.70;;;;;;4588738;29;10000473;-35
2021/06/17 10:19:10;;;;;;;57.05;28.67;;;23.90;66.20;;;;;;4990057;28;20117;-43
2021/06/17 10:21:35;;;;;;;34.33;18.52;;;24.00;65.60;;;;;;4990099;28;20058;-42
2021/06/17 10:24:02;;;;;;;12.57;7.72;;;24.10;65.60;;;;;;4987510;28;20065;-41
2021/06/17 10:26:30;;;;;;;15.15;8.23;;;23.90;66.10;;;;;;4985729;28;20030;-40
2021/06/17 10:28:57;;;;;;;13.05;8.02;;;24.10;65.50;;;;;;5000491;28;20077;-40
2021/06/17 10:31:40;;;;;;;11.57;7.25;;;24.20;65.00;;;;;;4987777;28;20026;-37
2021/06/17 10:34:29;;;;;;;20.33;11.70;;;24.30;64.80;;;;;;4987799;28;20404;-37
2021/06/17 10:37:21;;;;;;;15.63;9.27;;;24.30;64.90;;;;;;4987725;28;20042;-39
2021/06/17 10:39:48;;;;;;;30.10;14.75;;;24.20;65.30;;;;;;4987210;28;20034;-41
2021/06/17 10:42:33;;;;;;;26.38;14.18;;;24.10;66.00;;;;;;4986578;28;20030;-41
2021/06/17 10:45:00;;;;;;;24.70;13.13;;;24.20;65.40;;;;;;4986764;28;20030;-41
2021/06/17 10:47:42;;;;;;;28.48;14.85;;;24.20;65.50;;;;;;4984498;28;20046;-40
2021/06/17 10:50:19;;;;;;;19.40;12.00;;;24.10;66.00;;;;;;4984804;28;20042;-39
2021/06/17 10:52:45;;;;;;;24.00;11.55;;;24.20;65.30;;;;;;4986465;28;20046;-38
2021/06/17 10:55:14;;;;;;;23.35;12.25;;;24.20;65.30;;;;;;5003222;28;20033;-37
2021/06/17 10:57:52;;;;;;;19.98;12.05;;;24.30;65.10;;;;;;4985401;28;20089;-40
2021/06/17 11:02:53;;;;;;;19.35;11.18;;;24.30;64.80;;;;;;4984582;28;20133;-39
2021/06/17 11:05:49;;;;;;;17.45;10.20;;;24.40;64.40;;;;;;4984382;28;20042;-40
2021/06/17 11:08:21;;;;;;;16.02;9.48;;;24.40;64.00;;;;;;4966697;28;20100;-41
2021/06/17 11:11:13;;;;;;;19.65;10.25;;;24.40;64.00;;;;;;4985989;28;20045;-41
2021/06/17 11:13:48;;;;;;;16.55;8.82;;;24.40;64.30;;;;;;4984719;28;21046;-39
2021/06/17 11:16:14;;;;;;;19.40;10.07;;;24.50;64.00;;;;;;4988233;28;20030;-39
2021/06/17 11:21:23;;;;;;;;;;;24.40;64.10;;;;;;4985589;28;20516;-44
2021/06/17 11:23:52;;;;;;;18.05;9.95;;;24.50;63.60;;;;;;4985516;28;19914;-41
2021/06/17 11:26:53;;;;;;;16.52;9.35;;;24.50;63.60;;;;;;4989279;28;20042;-42
2021/06/17 11:29:21;;;;;;;15.30;9.25;;;24.60;63.60;;;;;;4900544;29;20119;-39
2021/06/17 11:31:49;;;;;;;19.02;10.15;;;24.50;63.50;;;;;;4876463;29;20041;-43
2021/06/17 11:34:36;;;;;;;16.20;9.48;;;24.50;64.00;;;;;;4894355;29;20115;-43
2021/06/17 11:37:12;;;;;;;17.00;9.88;;;24.40;63.90;;;;;;4892278;29;20047;-43
2021/06/17 11:39:37;;;;;;;9.40;6.38;;;24.50;63.80;;;;;;4892614;29;20407;-43
2021/06/17 11:42:04;;;;;;;14.85;9.10;;;24.30;64.20;;;;;;4889902;29;20032;-42
2021/06/17 11:44:30;;;;;;;17.40;8.95;;;24.30;64.40;;;;;;4897017;29;20040;-43
2021/06/17 11:47:03;;;;;;;17.35;9.80;;;24.20;65.10;;;;;;4903365;29;20072;-43
2021/06/17 11:49:33;;;;;;;19.85;9.70;;;24.40;64.80;;;;;;4905973;29;20431;-42
2021/06/17 11:51:59;;;;;;;18.90;9.75;;;24.20;65.30;;;;;;4897463;29;20076;-40
2021/06/17 11:54:25;;;;;;;13.75;8.77;;;24.10;65.60;;;;;;4896660;29;20555;-42
2021/06/17 11:56:58;;;;;;;12.80;8.50;;;24.20;65.80;;;;;;4890845;29;20083;-42
2021/06/17 11:59:26;;;;;;;16.00;9.27;;;24.30;65.40;;;;;;4906875;29;20088;-42
2021/06/17 12:02:04;;;;;;;18.90;8.02;;;24.20;65.30;;;;;;4896364;29;20036;-42
2021/06/17 12:04:52;;;;;;;12.18;7.65;;;24.30;65.20;;;;;;5005857;28;20397;-42
2021/06/17 12:07:23;;;;;;;14.35;8.23;;;24.20;65.40;;;;;;4994875;28;20084;-43
2021/06/17 12:09:49;;;;;;;14.25;7.13;;;24.20;65.40;;;;;;4993575;28;20023;-43
2021/06/17 12:12:19;;;;;;;14.85;8.05;;;24.10;65.80;;;;;;4979571;28;20117;-43
2021/06/17 12:14:49;;;;;;;15.57;7.70;;;24.10;66.10;;;;;;4992920;28;20117;-43
2021/06/17 12:17:31;;;;;;;13.38;7.85;;;24.10;66.60;;;;;;4991607;28;20069;-42
2021/06/17 12:20:10;;;;;;;12.98;7.25;;;24.00;66.10;;;;;;4978104;28;20034;-43
2021/06/17 12:22:42;;;;;;;9.00;6.57;;;24.00;66.10;;;;;;4644049;28;9999772;-42
2021/06/17 12:25:09;;;;;;;11.02;7.30;;;24.00;66.30;;;;;;4989727;28;20026;-43
2021/06/17 12:27:35;;;;;;;14.65;7.68;;;24.00;66.20;;;;;;4995295;28;20397;-43
2021/06/17 12:30:41;;;;;;;9.75;7.57;;;23.90;66.30;;;;;;4995195;28;20135;-43
2021/06/17 12:33:19;;;;;;;10.82;6.60;;;23.90;66.40;;;;;;4985020;28;20516;-42
2021/06/17 12:35:50;;;;;;;9.02;5.40;;;24.00;66.30;;;;;;4986233;28;20034;-43
2021/06/17 12:38:21;;;;;;;10.68;6.88;;;24.20;65.40;;;;;;4987234;28;20018;-43
2021/06/17 12:40:47;;;;;;;9.15;6.30;;;24.20;65.40;;;;;;4987481;28;20035;-44
2021/06/17 12:43:14;;;;;;;8.95;5.50;;;24.10;65.40;;;;;;4991587;28;20097;-43
2021/06/17 12:45:41;;;;;;;7.93;5.90;;;24.20;65.20;;;;;;4988355;28;20513;-41
2021/06/17 12:48:15;;;;;;;7.97;5.90;;;24.20;65.00;;;;;;4988513;28;20421;-44
2021/06/17 12:53:25;;;;;;;8.27;5.20;;;24.30;64.70;;;;;;4988293;28;20072;-42
2021/06/17 12:55:55;;;;;;;9.25;5.55;;;24.20;64.90;;;;;;4986891;28;20050;-44